createdAt,value
2023-04-21T00:02:08.545Z,34.47
2023-04-21T00:07:04.862Z,32.85
2023-04-21T00:12:01.492Z,38.47
2023-04-21T00:17:00.029Z,33.08
2023-04-21T00:26:55.479Z,32.95
2023-04-21T00:31:51.807Z,30.40
2023-04-21T00:36:48.291Z,33.97
2023-04-21T00:41:44.658Z,34.67
2023-04-21T00:46:42.841Z,35.95
2023-04-21T00:51:39.831Z,41.22
2023-04-21T00:56:36.698Z,37.90
2023-04-21T01:01:36.643Z,38.13
2023-04-21T01:06:36.376Z,41.60
2023-04-21T01:11:32.887Z,33.42
2023-04-21T01:16:29.533Z,36.20
2023-04-21T01:21:27.047Z,41.17
2023-04-21T01:26:23.535Z,35.92
2023-04-21T01:31:21.224Z,37.95
2023-04-21T01:36:17.623Z,32.23
2023-04-21T01:41:14.165Z,30.60
2023-04-21T01:46:10.680Z,28.95
2023-04-21T01:51:07.577Z,32.53
2023-04-21T01:56:04.140Z,27.45
2023-04-21T02:01:00.481Z,31.75
2023-04-21T02:05:56.812Z,28.08
2023-04-21T02:10:53.106Z,28.27
2023-04-21T02:15:50.369Z,30.15
2023-04-21T02:20:49.378Z,29.48
2023-04-21T02:25:45.831Z,28.45
2023-04-21T02:30:42.645Z,28.70
2023-04-21T02:35:39.081Z,30.27
2023-04-21T02:40:35.795Z,31.83
2023-04-21T02:45:32.088Z,28.15
2023-04-21T02:50:28.408Z,31.35
2023-04-21T02:55:25.072Z,28.13
2023-04-21T03:00:21.504Z,25.95
2023-04-21T03:05:17.881Z,26.83
2023-04-21T03:10:14.288Z,30.35
2023-04-21T03:15:11.418Z,31.45
2023-04-21T03:20:08.497Z,32.80
2023-04-21T03:25:07.317Z,27.95
2023-04-21T03:30:04.325Z,31.42
2023-04-21T03:35:00.710Z,30.60
2023-04-21T03:39:57.214Z,30.23
2023-04-21T03:44:53.582Z,39.13
2023-04-21T03:49:49.908Z,32.83
2023-04-21T03:54:46.249Z,33.72
2023-04-21T03:59:43.489Z,30.52
2023-04-21T04:04:39.982Z,29.67
2023-04-21T04:09:36.480Z,31.52
2023-04-21T04:14:32.811Z,30.98
2023-04-21T04:19:32.622Z,32.13
2023-04-21T04:24:29.619Z,30.58
2023-04-21T04:29:27.002Z,37.08
2023-04-21T04:34:23.381Z,35.80
2023-04-21T04:39:20.459Z,33.92
2023-04-21T04:44:18.375Z,34.17
2023-04-21T04:49:15.424Z,36.53
2023-04-21T04:54:11.735Z,31.38
2023-04-21T04:59:08.393Z,33.85
2023-04-21T05:04:05.221Z,33.55
2023-04-21T05:09:01.691Z,37.00
2023-04-21T05:13:58.196Z,34.90
2023-04-21T05:18:54.486Z,30.20
2023-04-21T05:23:50.851Z,29.75
2023-04-21T05:28:47.159Z,32.33
2023-04-21T05:33:43.500Z,28.10
2023-04-21T05:38:40.246Z,27.17
2023-04-21T05:43:36.560Z,24.42
2023-04-21T05:48:33.121Z,27.40
2023-04-21T05:53:29.443Z,23.50
2023-04-21T05:58:25.847Z,25.17
2023-04-21T06:03:22.270Z,22.98
2023-04-21T06:08:18.633Z,25.83
2023-04-21T06:13:15.076Z,23.88
2023-04-21T06:18:11.454Z,23.02
2023-04-21T06:23:09.460Z,23.35
2023-04-21T06:28:05.748Z,26.38
2023-04-21T06:33:02.065Z,24.83
2023-04-21T06:37:58.531Z,18.55
2023-04-21T06:42:54.886Z,20.38
2023-04-21T06:47:51.252Z,17.38
2023-04-21T06:52:47.617Z,19.63
2023-04-21T06:57:44.152Z,20.70
2023-04-21T07:02:45.007Z,21.88
2023-04-21T07:07:41.378Z,18.02
2023-04-21T07:12:37.716Z,21.67
2023-04-21T07:17:34.062Z,17.75
2023-04-21T07:22:30.491Z,18.30
2023-04-21T07:27:26.858Z,17.60
2023-04-21T07:32:23.232Z,16.63
2023-04-21T07:37:19.596Z,14.90
2023-04-21T07:42:15.890Z,15.07
2023-04-21T07:47:12.539Z,16.48
2023-04-21T07:52:09.000Z,18.83
2023-04-21T07:57:07.093Z,17.73
2023-04-21T08:02:03.801Z,15.32
2023-04-21T08:07:00.562Z,15.98
2023-04-21T08:11:57.944Z,15.85
2023-04-21T08:16:56.762Z,18.67
2023-04-21T08:21:53.640Z,22.58
2023-04-21T08:26:49.990Z,15.73
2023-04-21T08:31:46.544Z,19.10
2023-04-21T08:36:42.963Z,17.23
2023-04-21T08:41:42.945Z,17.10
2023-04-21T08:46:40.554Z,13.23
2023-04-21T08:51:37.003Z,17.80
2023-04-21T08:56:33.351Z,18.70
2023-04-21T09:01:31.422Z,16.20
2023-04-21T09:11:37.732Z,15.93
2023-04-21T09:16:34.159Z,15.38
2023-04-21T09:21:32.488Z,12.10
2023-04-21T09:26:28.932Z,10.23
2023-04-21T09:31:25.739Z,14.23
2023-04-21T09:36:27.923Z,14.50
2023-04-21T09:41:25.243Z,11.70
2023-04-21T09:46:22.532Z,9.70
2023-04-21T09:51:32.708Z,12.65
2023-04-21T09:56:41.019Z,14.77
2023-04-21T10:01:39.081Z,11.18
2023-04-21T10:06:36.576Z,12.93
2023-04-21T10:11:34.479Z,14.00
2023-04-21T10:21:28.635Z,13.75
2023-04-21T10:26:35.336Z,10.75
2023-04-21T10:31:35.061Z,10.68
2023-04-21T10:36:31.512Z,13.57
2023-04-21T10:41:32.177Z,10.60
2023-04-21T10:46:36.843Z,8.57
2023-04-21T10:51:33.328Z,9.85
2023-04-21T10:56:29.906Z,12.93
2023-04-21T11:01:26.597Z,10.25
2023-04-21T11:06:22.931Z,13.48
2023-04-21T11:11:27.798Z,14.75
2023-04-21T11:16:24.159Z,11.43
2023-04-21T11:21:24.596Z,8.43
2023-04-21T11:26:34.836Z,9.80
2023-04-21T11:31:31.621Z,11.07
2023-04-21T11:36:29.179Z,6.73
2023-04-21T11:41:25.617Z,7.93
2023-04-21T11:46:27.282Z,8.05
2023-04-21T11:51:23.690Z,9.02
2023-04-21T11:56:23.381Z,11.10
2023-04-21T12:01:21.228Z,6.13
2023-04-21T12:06:28.624Z,5.75
2023-04-21T12:11:28.192Z,12.00
2023-04-21T12:16:28.952Z,8.32
2023-04-21T12:21:29.234Z,5.78
2023-04-21T12:26:25.668Z,3.03
2023-04-21T12:31:22.997Z,5.25
2023-04-21T12:36:19.627Z,4.25
2023-04-21T12:41:16.008Z,6.30
2023-04-21T12:46:12.430Z,4.05
2023-04-21T12:51:08.814Z,5.70
2023-04-21T12:56:05.763Z,3.47
2023-04-21T13:01:02.254Z,4.18
2023-04-21T13:05:58.630Z,5.82
2023-04-21T13:10:55.526Z,4.20
2023-04-21T13:15:51.991Z,4.10
2023-04-21T13:20:48.417Z,8.25
2023-04-21T13:25:45.563Z,5.97
2023-04-21T13:30:42.012Z,5.10
2023-04-21T13:35:38.478Z,4.82
2023-04-21T13:40:34.881Z,4.97
2023-04-21T13:45:31.593Z,3.63
2023-04-21T13:50:28.024Z,7.40
2023-04-21T13:55:24.472Z,4.32
2023-04-21T14:00:22.015Z,5.10
2023-04-21T14:05:18.792Z,10.18
2023-04-21T14:10:15.588Z,6.37
2023-04-21T14:15:13.231Z,4.68
2023-04-21T14:25:06.432Z,7.10
2023-04-21T14:30:03.026Z,4.63
2023-04-21T14:35:00.519Z,7.33
2023-04-21T14:39:56.919Z,4.10
2023-04-21T14:44:53.449Z,6.63
2023-04-21T14:49:55.161Z,5.40
2023-04-21T14:54:51.837Z,7.57
2023-04-21T14:59:50.434Z,4.85
2023-04-21T15:04:46.907Z,5.93
2023-04-21T15:09:45.717Z,5.15
2023-04-21T15:14:42.216Z,5.60
2023-04-21T15:19:38.590Z,5.10
2023-04-21T15:24:34.964Z,4.22
2023-04-21T15:29:31.373Z,10.27
2023-04-21T15:34:27.739Z,4.55
2023-04-21T15:39:24.182Z,5.95
2023-04-21T15:44:20.885Z,7.15
2023-04-21T15:49:17.282Z,6.70
2023-04-21T15:54:13.779Z,4.95
2023-04-21T15:59:10.301Z,5.35
2023-04-21T16:04:06.935Z,5.95
2023-04-21T16:09:03.472Z,6.75
2023-04-21T16:13:59.975Z,5.72
2023-04-21T16:18:56.397Z,10.32
2023-04-21T16:23:52.770Z,7.50
2023-04-21T16:28:49.623Z,4.35
2023-04-21T16:33:46.059Z,7.43
2023-04-21T16:38:42.475Z,12.02
2023-04-21T16:43:38.893Z,5.55
2023-04-21T16:48:35.269Z,7.22
2023-04-21T16:53:31.761Z,4.68
2023-04-21T16:58:28.569Z,8.35
2023-04-21T17:03:27.417Z,5.40
2023-04-21T17:08:23.879Z,6.90
2023-04-21T17:13:20.182Z,5.47
2023-04-21T17:18:16.696Z,5.22
2023-04-21T17:23:13.005Z,4.22
2023-04-21T17:28:09.501Z,4.57
2023-04-21T17:33:15.803Z,5.78
2023-04-21T17:38:13.448Z,6.22
2023-04-21T17:43:09.754Z,3.97
2023-04-21T17:48:06.601Z,4.18
2023-04-21T17:53:03.681Z,4.30
2023-04-21T17:58:00.027Z,7.60
2023-04-21T18:02:56.478Z,8.02
2023-04-21T18:07:52.900Z,6.90
2023-04-21T18:12:49.213Z,5.00
2023-04-21T18:17:45.961Z,3.92
2023-04-21T18:22:43.646Z,5.70
2023-04-21T18:27:40.613Z,7.10
2023-04-21T18:32:37.247Z,5.43
2023-04-21T18:37:33.892Z,23.63
2023-04-21T18:42:30.337Z,6.60
2023-04-21T18:47:26.757Z,4.57
2023-04-21T18:52:23.512Z,5.18
2023-04-21T18:57:19.884Z,3.05
2023-04-21T19:02:16.438Z,4.35
2023-04-21T19:07:15.521Z,7.38
2023-04-21T19:12:12.057Z,5.63
2023-04-21T19:17:08.458Z,7.95
2023-04-21T19:22:05.029Z,6.65
2023-04-21T19:27:02.378Z,3.00
2023-04-21T19:31:59.252Z,6.63
2023-04-21T19:36:55.623Z,5.90
2023-04-21T19:41:51.975Z,5.40
2023-04-21T19:46:48.382Z,7.40
2023-04-21T19:51:44.755Z,9.50
2023-04-21T19:56:41.099Z,6.40
2023-04-21T20:01:37.739Z,7.60
2023-04-21T20:06:34.205Z,5.65
2023-04-21T20:11:30.564Z,8.10
2023-04-21T20:16:27.925Z,9.32
2023-04-21T20:21:24.302Z,12.80
2023-04-21T20:26:20.839Z,5.85
2023-04-21T20:31:19.167Z,7.30
2023-04-21T20:36:15.662Z,3.80
2023-04-21T20:41:12.835Z,3.90
2023-04-21T20:46:09.227Z,5.97
2023-04-21T20:51:05.589Z,9.75
2023-04-21T20:56:02.283Z,7.78
2023-04-21T21:00:58.650Z,5.53
2023-04-21T21:05:55.085Z,3.67
2023-04-21T21:10:51.489Z,5.28
2023-04-21T21:15:47.991Z,6.65
2023-04-21T21:20:44.343Z,4.53
2023-04-21T21:25:40.757Z,6.10
2023-04-21T21:30:37.154Z,9.90
2023-04-21T21:35:33.592Z,4.80
2023-04-21T21:40:29.997Z,6.85
2023-04-21T21:45:26.426Z,7.15
2023-04-21T21:50:22.806Z,6.20
2023-04-21T21:55:19.219Z,3.67
2023-04-21T22:00:15.911Z,3.42
2023-04-21T22:05:13.751Z,3.85
2023-04-21T22:10:11.324Z,5.95
2023-04-21T22:15:08.273Z,5.55
2023-04-21T22:20:08.077Z,3.53
2023-04-21T22:25:05.026Z,4.90
2023-04-21T22:30:03.226Z,6.50
2023-04-21T22:34:59.954Z,3.83
2023-04-21T22:39:57.392Z,4.97
2023-04-21T22:44:53.749Z,6.47
2023-04-21T22:49:50.060Z,4.95
2023-04-21T22:54:46.391Z,5.68
2023-04-21T22:59:42.723Z,4.20
2023-04-21T23:04:39.120Z,4.88
2023-04-21T23:09:35.939Z,6.47
2023-04-21T23:14:32.512Z,4.25
2023-04-21T23:19:29.376Z,5.60
2023-04-21T23:24:25.770Z,6.75
2023-04-21T23:29:22.141Z,11.48
2023-04-21T23:34:18.532Z,7.10
2023-04-21T23:39:15.076Z,11.85
2023-04-21T23:44:11.513Z,5.70
2023-04-21T23:49:07.908Z,7.63
2023-04-21T23:54:04.384Z,5.63
2023-04-21T23:59:00.803Z,3.63
